createdAt,value
2022-11-17T00:02:25.477Z,100167.81
2022-11-17T00:04:54.726Z,100172.19
2022-11-17T00:07:22.473Z,100179.19
2022-11-17T00:09:50.262Z,100169.34
2022-11-17T00:12:35.421Z,100164.53
2022-11-17T00:15:03.158Z,100105.53
2022-11-17T00:17:30.845Z,100143.22
2022-11-17T00:20:17.414Z,100129.34
2022-11-17T00:22:45.047Z,100144.69
2022-11-17T00:25:12.812Z,100134.75
2022-11-17T00:27:40.615Z,100146.09
2022-11-17T00:30:30.010Z,100134.56
2022-11-17T00:33:19.993Z,100145.63
2022-11-17T00:35:54.319Z,100154.81
2022-11-17T00:38:22.184Z,100154.38
2022-11-17T00:40:49.940Z,100127.91
2022-11-17T00:43:17.622Z,100134.53
2022-11-17T00:45:45.370Z,100125.72
2022-11-17T00:48:13.823Z,100120.06
2022-11-17T00:50:41.537Z,100151.47
2022-11-17T00:53:10.713Z,100141.56
2022-11-17T00:55:38.634Z,100132.81
2022-11-17T00:58:06.512Z,100132.72
2022-11-17T01:00:34.228Z,100121.50
2022-11-17T01:03:01.975Z,100126.03
2022-11-17T01:05:33.007Z,100118.34
2022-11-17T01:08:01.007Z,100113.28
2022-11-17T01:10:30.092Z,100118.00
2022-11-17T01:12:57.876Z,100092.69
2022-11-17T01:15:25.520Z,100095.97
2022-11-17T01:17:53.189Z,100086.38
2022-11-17T01:20:21.541Z,100088.16
2022-11-17T01:22:49.231Z,100067.97
2022-11-17T01:25:16.954Z,100075.22
2022-11-17T01:27:46.141Z,100065.41
2022-11-17T01:30:14.774Z,100055.19
2022-11-17T01:32:42.567Z,100054.84
2022-11-17T01:35:10.576Z,100051.19
2022-11-17T01:37:38.281Z,100063.53
2022-11-17T01:40:07.222Z,100060.31
2022-11-17T01:42:34.922Z,100045.53
2022-11-17T01:45:17.639Z,100043.28
2022-11-17T01:47:48.541Z,100032.88
2022-11-17T01:50:29.278Z,100019.09
2022-11-17T01:52:59.997Z,100024.91
2022-11-17T01:55:33.175Z,99993.75
2022-11-17T01:58:06.919Z,100027.94
2022-11-17T02:00:36.171Z,100037.94
2022-11-17T02:03:07.271Z,100018.47
2022-11-17T02:05:42.748Z,100012.22
2022-11-17T02:08:12.071Z,100020.84
2022-11-17T02:10:40.192Z,100006.56
2022-11-17T02:13:09.208Z,100013.25
2022-11-17T02:15:38.353Z,100014.72
2022-11-17T02:18:06.604Z,100010.31
2022-11-17T02:20:54.135Z,100009.09
2022-11-17T02:23:58.299Z,100003.94
2022-11-17T02:26:59.617Z,99998.63
2022-11-17T02:29:36.273Z,99984.22
2022-11-17T02:32:08.850Z,99984.53
2022-11-17T02:34:44.994Z,99989.91
2022-11-17T02:37:21.706Z,99984.09
2022-11-17T02:39:55.999Z,99983.31
2022-11-17T02:42:43.868Z,99982.28
2022-11-17T02:45:18.638Z,99968.84
2022-11-17T02:47:49.501Z,99959.72
2022-11-17T02:50:21.925Z,99951.78
2022-11-17T02:52:53.174Z,99959.31
2022-11-17T02:55:20.963Z,99949.63
2022-11-17T02:57:49.572Z,99960.53
2022-11-17T03:00:21.060Z,99943.19
2022-11-17T03:03:11.245Z,99956.50
2022-11-17T03:05:49.822Z,99964.47
2022-11-17T03:08:33.009Z,99951.03
2022-11-17T03:11:03.671Z,99935.91
2022-11-17T03:13:41.871Z,99946.78
2022-11-17T03:16:18.559Z,99946.34
2022-11-17T03:18:56.840Z,99947.66
2022-11-17T03:21:29.882Z,99942.78
2022-11-17T03:24:04.018Z,99901.91
2022-11-17T03:26:36.876Z,99909.09
2022-11-17T03:29:09.528Z,99905.00
2022-11-17T03:31:40.323Z,99908.56
2022-11-17T03:34:14.254Z,99905.72
2022-11-17T03:36:48.240Z,99916.22
2022-11-17T03:39:21.403Z,99886.78
2022-11-17T03:41:52.327Z,99888.09
2022-11-17T03:44:24.069Z,99895.13
2022-11-17T03:46:56.678Z,99904.44
2022-11-17T03:49:37.281Z,99891.69
2022-11-17T03:52:05.638Z,99868.34
2022-11-17T03:54:34.007Z,99875.59
2022-11-17T03:57:08.103Z,99904.47
2022-11-17T03:59:45.004Z,99895.13
2022-11-17T04:02:19.133Z,99886.44
2022-11-17T04:05:04.784Z,99879.66
2022-11-17T04:07:32.597Z,99876.44
2022-11-17T04:10:00.325Z,99876.06
2022-11-17T04:12:45.589Z,99888.53
2022-11-17T04:15:30.905Z,99884.41
2022-11-17T04:18:00.151Z,99835.50
2022-11-17T04:20:35.803Z,99876.25
2022-11-17T04:23:11.429Z,99878.91
2022-11-17T04:25:58.198Z,99865.53
2022-11-17T04:28:39.665Z,99874.38
2022-11-17T04:31:10.032Z,99872.00
2022-11-17T04:33:41.246Z,99820.88
2022-11-17T04:36:09.809Z,99854.09
2022-11-17T04:38:37.821Z,99849.09
2022-11-17T04:41:25.406Z,99843.31
2022-11-17T04:43:53.691Z,99855.00
2022-11-17T04:46:22.749Z,99846.22
2022-11-17T04:48:54.166Z,99840.44
2022-11-17T04:51:23.200Z,99841.03
2022-11-17T04:53:51.435Z,99843.63
2022-11-17T04:56:20.758Z,99833.50
2022-11-17T04:58:49.275Z,99831.75
2022-11-17T05:01:18.701Z,99844.06
2022-11-17T05:03:48.715Z,99847.16
2022-11-17T05:06:20.315Z,99842.22
2022-11-17T05:08:48.529Z,99843.28
2022-11-17T05:11:34.765Z,99840.50
2022-11-17T05:14:03.471Z,99837.69
2022-11-17T05:16:48.639Z,99835.41
2022-11-17T05:19:19.269Z,99840.19
2022-11-17T05:21:48.761Z,99825.13
2022-11-17T05:24:16.836Z,99837.22
2022-11-17T05:26:45.923Z,99833.69
2022-11-17T05:29:15.601Z,99828.53
2022-11-17T05:31:43.448Z,99822.13
2022-11-17T05:34:13.288Z,99807.25
2022-11-17T05:36:42.010Z,99812.84
2022-11-17T05:39:11.509Z,99810.63
2022-11-17T05:41:39.261Z,99814.88
2022-11-17T05:44:07.071Z,99815.00
2022-11-17T05:46:34.742Z,99822.06
2022-11-17T05:49:02.648Z,99825.31
2022-11-17T05:51:32.258Z,99797.19
2022-11-17T05:54:00.110Z,99811.00
2022-11-17T05:56:34.922Z,99807.38
2022-11-17T05:59:13.965Z,99802.34
2022-11-17T06:01:46.938Z,99812.56
2022-11-17T06:04:17.788Z,99818.56
2022-11-17T06:06:46.317Z,99807.38
2022-11-17T06:09:14.243Z,99817.56
2022-11-17T06:11:43.441Z,99810.34
2022-11-17T06:14:11.255Z,99824.34
2022-11-17T06:16:44.789Z,99808.38
2022-11-17T06:19:17.687Z,99810.38
2022-11-17T06:22:10.747Z,99803.19
2022-11-17T06:24:34.325Z,99809.22
2022-11-17T06:27:03.679Z,99825.97
2022-11-17T06:29:31.923Z,99817.28
2022-11-17T06:32:00.311Z,99816.19
2022-11-17T06:34:29.054Z,99806.75
2022-11-17T06:36:56.736Z,99809.63
2022-11-17T06:39:24.653Z,99787.19
2022-11-17T06:41:52.472Z,99805.94
2022-11-17T06:44:21.592Z,99812.44
2022-11-17T06:46:49.538Z,99799.06
2022-11-17T06:49:17.460Z,99794.81
2022-11-17T06:51:45.753Z,99795.72
2022-11-17T06:54:14.844Z,99801.31
2022-11-17T06:56:43.623Z,99814.03
2022-11-17T06:59:11.366Z,99801.41
2022-11-17T07:01:40.575Z,99799.84
2022-11-17T07:04:08.898Z,99802.50
2022-11-17T07:06:37.546Z,99795.13
2022-11-17T07:09:05.783Z,99798.63
2022-11-17T07:11:36.150Z,99792.28
2022-11-17T07:14:03.852Z,99794.59
2022-11-17T07:16:32.603Z,99784.75
2022-11-17T07:19:03.695Z,99792.13
2022-11-17T07:21:32.104Z,99781.19
2022-11-17T07:23:59.988Z,99831.53
2022-11-17T07:26:27.922Z,99788.75
2022-11-17T07:28:55.924Z,99786.16
2022-11-17T07:31:23.736Z,99788.81
2022-11-17T07:33:51.535Z,99710.50
2022-11-17T07:36:20.711Z,99788.75
2022-11-17T07:38:48.583Z,99781.13
2022-11-17T07:41:16.344Z,99790.44
2022-11-17T07:43:44.199Z,99786.91
2022-11-17T07:46:13.993Z,99767.38
2022-11-17T07:48:42.890Z,99697.94
2022-11-17T07:51:11.631Z,99719.88
2022-11-17T07:53:40.771Z,99770.91
2022-11-17T07:56:10.639Z,99781.16
2022-11-17T07:58:39.552Z,99764.00
2022-11-17T08:01:08.213Z,99761.50
2022-11-17T08:03:36.425Z,99750.19
2022-11-17T08:06:04.791Z,99766.16
2022-11-17T08:08:33.010Z,99764.25
2022-11-17T08:11:05.113Z,99766.91
2022-11-17T08:13:33.494Z,99762.34
2022-11-17T08:16:01.443Z,99781.00
2022-11-17T08:18:29.827Z,99765.34
2022-11-17T08:21:03.332Z,99756.16
2022-11-17T08:23:31.452Z,99760.66
2022-11-17T08:25:59.647Z,99763.66
2022-11-17T08:28:28.907Z,99755.59
2022-11-17T08:30:56.904Z,99753.44
2022-11-17T08:33:24.661Z,99755.94
2022-11-17T08:35:52.522Z,99753.63
2022-11-17T08:38:20.186Z,99732.59
2022-11-17T08:40:48.159Z,99749.53
2022-11-17T08:43:15.954Z,99741.31
2022-11-17T08:45:45.066Z,99745.69
2022-11-17T08:48:12.831Z,99742.72
2022-11-17T08:50:40.603Z,99749.06
2022-11-17T08:53:14.502Z,99742.69
2022-11-17T08:55:42.487Z,99684.81
2022-11-17T08:58:10.786Z,99750.09
2022-11-17T09:00:38.746Z,99743.69
2022-11-17T09:03:09.049Z,99739.13
2022-11-17T09:05:39.970Z,99754.97
2022-11-17T09:08:30.196Z,99751.00
2022-11-17T09:10:56.516Z,99749.19
2022-11-17T09:13:24.206Z,99751.56
2022-11-17T09:15:52.085Z,99744.34
2022-11-17T09:18:21.209Z,99749.31
2022-11-17T09:20:48.924Z,99756.94
2022-11-17T09:23:16.623Z,99746.41
2022-11-17T09:25:44.450Z,99743.88
2022-11-17T09:28:12.225Z,99765.41
2022-11-17T09:30:40.085Z,99738.50
2022-11-17T09:33:07.896Z,99748.19
2022-11-17T09:35:37.181Z,99731.28
2022-11-17T09:38:04.949Z,99741.63
2022-11-17T09:40:37.627Z,99744.88
2022-11-17T09:43:09.499Z,99736.72
2022-11-17T09:45:40.193Z,99728.00
2022-11-17T09:48:40.161Z,99738.66
2022-11-17T09:51:07.646Z,99731.97
2022-11-17T09:53:44.786Z,99742.63
2022-11-17T09:56:14.620Z,99687.44
2022-11-17T09:58:47.214Z,99732.06
2022-11-17T10:01:18.797Z,99725.31
2022-11-17T10:03:48.598Z,99725.50
2022-11-17T10:06:22.001Z,99727.31
2022-11-17T10:09:00.173Z,99720.09
2022-11-17T10:11:33.955Z,99729.03
2022-11-17T10:14:13.452Z,99719.88
2022-11-17T10:16:44.063Z,99725.56
2022-11-17T10:19:16.629Z,99716.66
2022-11-17T10:21:46.329Z,99709.53
2022-11-17T10:24:34.166Z,99713.91
2022-11-17T10:27:03.260Z,99708.94
2022-11-17T10:29:31.459Z,99696.78
2022-11-17T10:31:59.827Z,99705.28
2022-11-17T10:34:38.863Z,99691.63
2022-11-17T10:37:26.042Z,99699.44
2022-11-17T10:40:10.061Z,99650.06
2022-11-17T10:42:37.847Z,99700.34
2022-11-17T10:45:07.505Z,99643.28
2022-11-17T10:47:39.947Z,99695.59
2022-11-17T10:50:24.363Z,99679.59
2022-11-17T10:52:54.929Z,99685.47
2022-11-17T10:55:28.706Z,99689.28
2022-11-17T10:58:01.388Z,99696.50
2022-11-17T11:00:32.294Z,99696.59
2022-11-17T11:03:17.109Z,99693.31
2022-11-17T11:06:22.625Z,99684.44
2022-11-17T11:08:56.358Z,99677.81
2022-11-17T11:11:42.207Z,99672.63
2022-11-17T11:14:19.164Z,99670.25
2022-11-17T11:16:48.942Z,99676.41
2022-11-17T11:19:18.576Z,99668.38
2022-11-17T11:21:59.119Z,99675.16
2022-11-17T11:24:35.913Z,99665.41
2022-11-17T11:27:21.606Z,99685.63
2022-11-17T11:30:00.734Z,99652.44
2022-11-17T11:32:39.961Z,99659.44
2022-11-17T11:35:33.425Z,99655.22
2022-11-17T11:38:14.803Z,99654.84
2022-11-17T11:40:53.049Z,99652.78
2022-11-17T11:43:33.086Z,99658.94
2022-11-17T11:46:09.783Z,99665.25
2022-11-17T11:48:41.151Z,99673.31
2022-11-17T11:51:15.566Z,99665.72
2022-11-17T11:53:49.348Z,99660.66
2022-11-17T11:56:23.463Z,99674.78
2022-11-17T11:58:58.236Z,99658.91
2022-11-17T12:01:27.476Z,99672.50
2022-11-17T12:04:07.204Z,99662.47
2022-11-17T12:06:42.738Z,99681.22
2022-11-17T12:09:40.402Z,99680.16
2022-11-17T12:12:16.008Z,99691.31
2022-11-17T12:15:09.561Z,99608.38
2022-11-17T12:17:37.843Z,99681.16
2022-11-17T12:20:26.980Z,99682.50
2022-11-17T12:23:18.296Z,99675.31
2022-11-17T12:25:53.500Z,99676.06
2022-11-17T12:28:33.276Z,99685.13
2022-11-17T12:31:08.312Z,99667.47
2022-11-17T12:34:23.772Z,99686.88
2022-11-17T12:37:17.914Z,99649.44
2022-11-17T12:39:54.738Z,99687.50
2022-11-17T12:42:22.532Z,99684.34
2022-11-17T12:44:58.136Z,99692.09
2022-11-17T12:47:27.728Z,99681.28
2022-11-17T12:50:19.010Z,99687.28
2022-11-17T12:52:56.091Z,99678.63
2022-11-17T12:55:35.922Z,99688.63
2022-11-17T12:58:10.776Z,99670.75
2022-11-17T13:00:47.986Z,99669.69
2022-11-17T13:03:20.012Z,99687.00
2022-11-17T13:06:33.802Z,99676.44
2022-11-17T13:08:59.646Z,99670.88
2022-11-17T13:11:28.141Z,99695.50
2022-11-17T13:14:10.177Z,99687.00
2022-11-17T13:16:45.754Z,99701.16
2022-11-17T13:19:33.865Z,99687.97
2022-11-17T13:22:04.099Z,99700.78
2022-11-17T13:24:35.014Z,99697.25
2022-11-17T13:27:07.277Z,99692.03
2022-11-17T13:29:35.466Z,99687.75
2022-11-17T13:32:13.707Z,99689.03
2022-11-17T13:34:49.724Z,99695.94
2022-11-17T13:37:19.327Z,99707.38
2022-11-17T13:39:58.644Z,99699.19
2022-11-17T13:42:28.874Z,99695.56
2022-11-17T13:44:59.546Z,99690.56
2022-11-17T13:47:43.366Z,99696.09
2022-11-17T13:50:39.513Z,99690.25
2022-11-17T13:53:25.487Z,99696.50
2022-11-17T13:55:54.281Z,99699.28
2022-11-17T13:58:38.483Z,99704.47
2022-11-17T14:01:06.440Z,99655.91
2022-11-17T14:03:40.681Z,99717.72
2022-11-17T14:06:10.713Z,99710.09
2022-11-17T14:08:39.676Z,99704.91
2022-11-17T14:11:21.546Z,99716.88
2022-11-17T14:13:52.090Z,99697.63
2022-11-17T14:16:27.079Z,99719.81
2022-11-17T14:19:02.292Z,99718.41
2022-11-17T14:21:31.284Z,99722.13
2022-11-17T14:24:11.519Z,99712.19
2022-11-17T14:26:44.491Z,99724.03
2022-11-17T14:29:13.813Z,99732.63
2022-11-17T14:31:41.541Z,99712.13
2022-11-17T14:34:10.702Z,99728.56
2022-11-17T14:36:39.904Z,99727.56
2022-11-17T14:39:14.648Z,99733.31
2022-11-17T14:41:43.003Z,99724.16
2022-11-17T14:44:12.390Z,99716.53
2022-11-17T14:46:40.592Z,99723.19
2022-11-17T14:49:08.385Z,99714.94
2022-11-17T14:51:37.619Z,99721.63
2022-11-17T14:54:05.679Z,99736.09
2022-11-17T14:56:34.748Z,99731.84
2022-11-17T14:59:02.684Z,99673.44
2022-11-17T15:01:32.696Z,99737.34
2022-11-17T15:04:20.815Z,99730.09
2022-11-17T15:06:51.951Z,99736.22
2022-11-17T15:09:20.618Z,99756.31
2022-11-17T15:11:48.790Z,99665.09
2022-11-17T15:14:16.733Z,99760.25
2022-11-17T15:16:44.830Z,99745.53
2022-11-17T15:19:13.127Z,99766.69
2022-11-17T15:21:40.963Z,99771.22
2022-11-17T15:24:10.450Z,99758.47
2022-11-17T15:26:38.311Z,99760.94
2022-11-17T15:29:06.051Z,99767.41
2022-11-17T15:31:34.064Z,99760.84
2022-11-17T15:34:02.372Z,99760.97
2022-11-17T15:36:31.833Z,99766.84
2022-11-17T15:38:59.596Z,99768.78
2022-11-17T15:41:32.746Z,99777.50
2022-11-17T15:44:00.732Z,99778.19
2022-11-17T15:46:28.542Z,99772.19
2022-11-17T15:48:56.975Z,99761.22
2022-11-17T15:51:26.672Z,99783.78
2022-11-17T15:53:57.982Z,99768.78
2022-11-17T15:56:28.740Z,99767.13
2022-11-17T15:58:57.876Z,99770.59
2022-11-17T16:01:29.713Z,99790.94
2022-11-17T16:03:59.523Z,99778.16
2022-11-17T16:06:27.484Z,99779.91
2022-11-17T16:08:55.767Z,99780.69
2022-11-17T16:11:23.721Z,99779.16
2022-11-17T16:13:54.818Z,99796.88
2022-11-17T16:16:23.635Z,99787.41
2022-11-17T16:18:51.391Z,99794.47
2022-11-17T16:21:20.035Z,99799.53
2022-11-17T16:23:49.415Z,99772.13
2022-11-17T16:26:19.511Z,99785.13
2022-11-17T16:28:47.904Z,99790.19
2022-11-17T16:31:19.852Z,99802.97
2022-11-17T16:33:49.378Z,99806.91
2022-11-17T16:36:17.631Z,99799.31
2022-11-17T16:39:02.158Z,99795.97
2022-11-17T16:41:32.701Z,99810.25
2022-11-17T16:44:00.893Z,99766.41
2022-11-17T16:46:31.786Z,99792.53
2022-11-17T16:49:02.704Z,99806.25
2022-11-17T16:51:30.584Z,99754.44
2022-11-17T16:54:00.565Z,99805.28
2022-11-17T16:56:28.909Z,99805.44
2022-11-17T16:58:56.932Z,99804.59
2022-11-17T17:01:27.151Z,99807.84
2022-11-17T17:04:00.711Z,99767.97
2022-11-17T17:06:29.256Z,99813.13
2022-11-17T17:08:57.670Z,99807.25
2022-11-17T17:11:27.267Z,99820.03
2022-11-17T17:13:56.244Z,99817.34
2022-11-17T17:16:24.039Z,99816.56
2022-11-17T17:18:56.196Z,99822.31
2022-11-17T17:21:25.236Z,99834.84
2022-11-17T17:23:53.140Z,99821.28
2022-11-17T17:26:22.552Z,99821.47
2022-11-17T17:28:51.997Z,99820.47
2022-11-17T17:31:22.128Z,99823.88
2022-11-17T17:33:51.316Z,99816.53
2022-11-17T17:36:21.110Z,99824.94
2022-11-17T17:38:55.376Z,99811.31
2022-11-17T17:41:25.301Z,99815.56
2022-11-17T17:43:56.641Z,99825.88
2022-11-17T17:46:24.878Z,99816.41
2022-11-17T17:48:52.736Z,99819.03
2022-11-17T17:51:23.859Z,99832.72
2022-11-17T17:53:53.295Z,99807.13
2022-11-17T17:56:22.753Z,99823.94
2022-11-17T17:58:51.698Z,99828.19
2022-11-17T18:01:21.677Z,99825.78
2022-11-17T18:03:50.928Z,99831.03
2022-11-17T18:06:20.252Z,99835.34
2022-11-17T18:08:48.514Z,99833.59
2022-11-17T18:11:19.560Z,99823.19
2022-11-17T18:13:49.197Z,99839.66
2022-11-17T18:16:19.044Z,99843.91
2022-11-17T18:18:46.819Z,99837.88
2022-11-17T18:21:16.653Z,99824.16
2022-11-17T18:23:44.997Z,99768.13
2022-11-17T18:26:15.648Z,99836.94
2022-11-17T18:28:50.153Z,99756.38
2022-11-17T18:31:17.967Z,99842.78
2022-11-17T18:33:46.146Z,99836.28
2022-11-17T18:36:13.866Z,99855.84
2022-11-17T18:38:41.588Z,99842.16
2022-11-17T18:41:11.349Z,99855.09
2022-11-17T18:43:39.980Z,99849.78
2022-11-17T18:46:10.624Z,99848.97
2022-11-17T18:48:39.921Z,99834.59
2022-11-17T18:51:25.049Z,99860.13
2022-11-17T18:53:54.488Z,99859.97
2022-11-17T18:56:24.439Z,99868.56
2022-11-17T18:58:52.849Z,99849.16
2022-11-17T19:01:23.858Z,99862.59
2022-11-17T19:03:53.465Z,99859.41
2022-11-17T19:06:22.673Z,99855.94
2022-11-17T19:08:51.097Z,99857.44
2022-11-17T19:11:20.456Z,99874.41
2022-11-17T19:13:48.501Z,99862.66
2022-11-17T19:16:17.992Z,99857.47
2022-11-17T19:18:48.946Z,99869.38
2022-11-17T19:21:18.725Z,99827.69
2022-11-17T19:23:51.458Z,99869.72
2022-11-17T19:26:21.651Z,99877.97
2022-11-17T19:28:49.653Z,99882.28
2022-11-17T19:31:20.005Z,99892.28
2022-11-17T19:33:50.013Z,99881.50
2022-11-17T19:36:19.600Z,99865.19
2022-11-17T19:38:49.202Z,99886.63
2022-11-17T19:41:19.112Z,99862.19
2022-11-17T19:43:46.850Z,99891.69
2022-11-17T19:46:16.607Z,99889.94
2022-11-17T19:48:45.284Z,99890.22
2022-11-17T19:51:16.903Z,99876.63
2022-11-17T19:53:44.647Z,99888.53
2022-11-17T19:56:12.389Z,99883.31
2022-11-17T19:58:41.830Z,99893.56
2022-11-17T20:01:12.100Z,99904.63
2022-11-17T20:03:40.742Z,99902.28
2022-11-17T20:06:09.619Z,99904.59
2022-11-17T20:08:39.022Z,99917.53
2022-11-17T20:11:09.395Z,99915.84
2022-11-17T20:13:38.241Z,99923.50
2022-11-17T20:16:12.047Z,99919.31
2022-11-17T20:18:40.095Z,99921.78
2022-11-17T20:21:08.992Z,99920.22
2022-11-17T20:23:39.369Z,99927.91
2022-11-17T20:26:08.262Z,99931.78
2022-11-17T20:28:40.114Z,99920.31
2022-11-17T20:31:09.901Z,99926.22
2022-11-17T20:33:38.268Z,99925.38
2022-11-17T20:36:06.951Z,99929.53
2022-11-17T20:38:35.879Z,99918.63
2022-11-17T20:41:06.234Z,99897.38
2022-11-17T20:43:35.012Z,99918.63
2022-11-17T20:46:03.663Z,99933.94
2022-11-17T20:48:34.133Z,99932.25
2022-11-17T20:51:04.200Z,99925.47
2022-11-17T20:53:33.082Z,99907.59
2022-11-17T20:56:02.346Z,99945.81
2022-11-17T20:58:32.271Z,99933.88
2022-11-17T21:01:00.412Z,99955.19
2022-11-17T21:03:28.448Z,99956.03
2022-11-17T21:05:59.246Z,99941.75
2022-11-17T21:08:28.833Z,99953.59
2022-11-17T21:10:56.844Z,99951.88
2022-11-17T21:13:25.376Z,99917.06
2022-11-17T21:16:05.752Z,99918.63
2022-11-17T21:18:34.147Z,99946.78
2022-11-17T21:21:04.580Z,99950.19
2022-11-17T21:23:32.638Z,99934.03
2022-11-17T21:26:04.707Z,99944.22
2022-11-17T21:28:32.539Z,99951.88
2022-11-17T21:31:07.729Z,99957.00
2022-11-17T21:33:35.961Z,99956.16
2022-11-17T21:36:04.103Z,99941.72
2022-11-17T21:38:31.866Z,99948.53
2022-11-17T21:41:02.992Z,99967.16
2022-11-17T21:43:30.791Z,99952.81
2022-11-17T21:46:02.252Z,99960.41
2022-11-17T21:48:31.376Z,99957.91
2022-11-17T21:50:59.689Z,99972.31
2022-11-17T21:53:27.698Z,99972.34
2022-11-17T21:56:01.220Z,99981.69
2022-11-17T21:58:29.038Z,99979.19
2022-11-17T22:00:57.431Z,99974.88
2022-11-17T22:03:25.995Z,99980.84
2022-11-17T22:06:01.010Z,99978.34
2022-11-17T22:08:29.991Z,99943.47
2022-11-17T22:10:57.789Z,100001.34
2022-11-17T22:13:25.575Z,99997.00
2022-11-17T22:15:53.526Z,99986.03
2022-11-17T22:18:21.393Z,99995.38
2022-11-17T22:20:52.021Z,99997.03
2022-11-17T22:23:21.407Z,99997.06
2022-11-17T22:25:54.390Z,99992.81
2022-11-17T22:28:22.744Z,100006.50
2022-11-17T22:30:50.796Z,100007.31
2022-11-17T22:33:19.047Z,100003.97
2022-11-17T22:35:47.278Z,100009.03
2022-11-17T22:38:16.073Z,100008.22
2022-11-17T22:40:45.280Z,100023.56
2022-11-17T22:43:15.496Z,100008.16
2022-11-17T22:45:43.779Z,100016.69
2022-11-17T22:48:11.714Z,100016.72
2022-11-17T22:50:39.447Z,100032.91
2022-11-17T22:53:07.215Z,100032.03
2022-11-17T22:55:35.348Z,100026.91
2022-11-17T22:58:04.693Z,100039.63
2022-11-17T23:00:32.561Z,100027.81
2022-11-17T23:03:00.386Z,100021.75
2022-11-17T23:05:28.241Z,100028.59
2022-11-17T23:07:55.954Z,100038.78
2022-11-17T23:10:23.725Z,100022.66
2022-11-17T23:12:51.660Z,100013.34
2022-11-17T23:15:21.333Z,100043.09
2022-11-17T23:17:49.930Z,100025.25
2022-11-17T23:20:18.162Z,100021.84
2022-11-17T23:22:45.946Z,100010.78
2022-11-17T23:25:13.742Z,99999.69
2022-11-17T23:27:41.619Z,100046.47
2022-11-17T23:30:10.429Z,100045.66
2022-11-17T23:32:39.648Z,100030.34
2022-11-17T23:35:08.224Z,100047.38
2022-11-17T23:37:35.992Z,100054.19
2022-11-17T23:40:03.859Z,100050.81
2022-11-17T23:42:32.797Z,100056.78
2022-11-17T23:45:01.158Z,100040.59
2022-11-17T23:47:28.793Z,100043.09
2022-11-17T23:49:57.893Z,100037.16
2022-11-17T23:52:25.636Z,100044.78
2022-11-17T23:54:53.495Z,100045.66
2022-11-17T23:57:21.255Z,100049.09
2022-11-17T23:59:49.150Z,100061.81
